Terminal Aerodrome Forecast
Issued by NWS Shreveport, LA

Home | Current Version | Previous Version | Text Only | Print | Product List | Glossary On
Versions: 1 2 3 4 5 6 7 8 9 10 11 12 13 14
000
FTUS44 KSHV 260016 RRA
TAFTYR
TAF
KTYR 260016Z 2600/2624 14003KT P6SM BKN050
     FM261000 VRB03KT P6SM FEW020
      TEMPO 2612/2616 4SM BR BKN015
     FM261600 VRB04KT P6SM BKN035
     FM261800 07005KT P6SM VCSH OVC040
      TEMPO 2619/2622 5SM -TSRA BKN040CB=

USA.gov is the U.S. government's official web portal to all federal, state and local government web resources and services.